Time;durP1;ratioP1;P1;durP2;ratioP2;P2;SDS_P1;SDS_P2;PMS_P1;PMS_P2;Temp;Humidity;BMP_temperature;BMP_pressure;BME280_temperature;BME280_humidity;BME280_pressure;Samples;Min_cycle;Max_cycle;Signal;HPM_P1;HPM_P2
2023/07/28 00:01:27;;;;;;;7.35;2.75;;;18.10;99.90;;;;;;4997505;28;20037;-71
2023/07/28 00:03:52;;;;;;;6.82;2.05;;;18.00;99.90;;;;;;4992206;28;20038;-70
2023/07/28 00:06:18;;;;;;;6.90;2.75;;;18.00;99.90;;;;;;4996783;28;20424;-70
2023/07/28 00:08:43;;;;;;;10.13;3.33;;;18.00;99.90;;;;;;4994933;28;20069;-70
2023/07/28 00:11:15;;;;;;;5.78;2.78;;;18.00;99.90;;;;;;4995858;28;20120;-70
2023/07/28 00:13:41;;;;;;;7.65;2.75;;;18.00;99.90;;;;;;4994297;28;20033;-70
2023/07/28 00:16:08;;;;;;;5.85;2.40;;;18.00;99.90;;;;;;4996988;28;20598;-72
2023/07/28 00:18:33;;;;;;;7.72;3.33;;;18.00;99.90;;;;;;4993864;28;20035;-71
2023/07/28 00:20:59;;;;;;;9.43;3.10;;;18.10;99.90;;;;;;4995118;28;20100;-72
2023/07/28 00:23:25;;;;;;;8.40;2.70;;;18.00;99.90;;;;;;4992530;28;20518;-70
2023/07/28 00:25:51;;;;;;;5.78;2.28;;;18.00;99.90;;;;;;4994564;28;20041;-73
2023/07/28 00:28:16;;;;;;;11.05;3.63;;;18.00;99.90;;;;;;4994777;28;20053;-69
2023/07/28 00:30:42;;;;;;;7.15;3.20;;;18.00;99.90;;;;;;4997276;28;20039;-70
2023/07/28 00:33:07;;;;;;;7.45;3.13;;;18.00;99.90;;;;;;5000379;28;20061;-69
2023/07/28 00:35:33;;;;;;;13.45;3.17;;;18.00;99.90;;;;;;4996801;28;20057;-70
2023/07/28 00:37:59;;;;;;;15.20;3.92;;;18.00;99.90;;;;;;4998655;28;20407;-70
2023/07/28 00:40:24;;;;;;;9.30;2.88;;;18.10;99.90;;;;;;5003588;28;20038;-69
2023/07/28 00:42:50;;;;;;;15.05;3.95;;;18.00;99.90;;;;;;5001454;28;20100;-70
2023/07/28 00:45:16;;;;;;;9.30;4.18;;;18.00;99.90;;;;;;5000384;28;20618;-70
2023/07/28 00:47:42;;;;;;;12.48;3.45;;;18.00;99.90;;;;;;5001456;28;20046;-69
2023/07/28 00:50:11;;;;;;;9.85;3.55;;;18.00;99.90;;;;;;5001127;28;20030;-69
2023/07/28 00:52:38;;;;;;;14.60;4.43;;;18.00;99.90;;;;;;5003974;28;20026;-69
2023/07/28 00:55:03;;;;;;;8.15;3.47;;;18.00;99.90;;;;;;5000209;28;20502;-69
2023/07/28 00:57:29;;;;;;;7.93;3.50;;;18.00;99.90;;;;;;5005886;28;20030;-70
2023/07/28 00:59:55;;;;;;;10.52;3.25;;;18.00;99.90;;;;;;5000217;28;20037;-71
2023/07/28 01:02:21;;;;;;;7.82;3.35;;;18.00;99.90;;;;;;5000597;28;20384;-70
2023/07/28 01:04:47;;;;;;;11.88;3.92;;;18.00;99.90;;;;;;4997831;28;20030;-70
2023/07/28 01:07:20;;;;;;;11.55;3.95;;;18.00;99.90;;;;;;4999157;28;20065;-69
2023/07/28 01:09:53;;;;;;;8.10;3.40;;;18.00;99.90;;;;;;4998153;28;20092;-70
2023/07/28 01:12:18;;;;;;;8.40;4.35;;;18.00;99.90;;;;;;4999436;28;20049;-69
2023/07/28 01:14:44;;;;;;;11.88;3.90;;;18.00;99.90;;;;;;4997741;28;20030;-71
2023/07/28 01:17:10;;;;;;;9.77;4.93;;;18.00;99.90;;;;;;4999222;28;21673;-71
2023/07/28 01:19:36;;;;;;;11.20;3.90;;;18.00;99.90;;;;;;4993036;28;20086;-72
2023/07/28 01:22:28;;;;;;;17.17;5.50;;;18.00;99.90;;;;;;5003797;28;20108;-71
2023/07/28 01:25:12;;;;;;;15.05;5.22;;;18.00;99.90;;;;;;5002524;28;20128;-70
2023/07/28 01:27:42;;;;;;;12.57;5.00;;;18.10;99.90;;;;;;4996551;28;20495;-70
2023/07/28 01:30:08;;;;;;;17.23;6.00;;;18.00;99.90;;;;;;5000318;28;20038;-71
2023/07/28 01:32:34;;;;;;;13.95;4.82;;;18.00;99.90;;;;;;5000296;28;20117;-71
2023/07/28 01:35:00;;;;;;;16.80;5.25;;;18.00;99.90;;;;;;5000419;28;20037;-69
2023/07/28 01:37:26;;;;;;;12.52;5.10;;;18.00;99.90;;;;;;4993874;28;20208;-70
2023/07/28 01:39:51;;;;;;;15.43;5.18;;;18.00;99.90;;;;;;5002340;28;20096;-71
2023/07/28 01:42:17;;;;;;;13.05;4.97;;;17.90;99.90;;;;;;5002479;28;20162;-70
2023/07/28 01:44:42;;;;;;;13.15;4.78;;;17.90;99.90;;;;;;5015869;28;20033;-71
2023/07/28 01:47:08;;;;;;;13.80;5.47;;;17.90;99.90;;;;;;5015634;28;20038;-70
2023/07/28 01:49:34;;;;;;;13.90;4.55;;;17.90;99.90;;;;;;5015596;28;20041;-71
2023/07/28 01:51:59;;;;;;;15.98;5.70;;;17.90;99.90;;;;;;5002720;28;20044;-70
2023/07/28 01:54:25;;;;;;;15.80;6.18;;;17.90;99.90;;;;;;5000006;28;20049;-71
2023/07/28 01:56:50;;;;;;;15.88;5.20;;;17.90;99.90;;;;;;4999386;28;20108;-76
2023/07/28 01:59:16;;;;;;;14.50;5.32;;;17.90;99.90;;;;;;5006773;28;20089;-72
2023/07/28 02:01:42;;;;;;;17.75;5.45;;;17.90;99.90;;;;;;5001256;28;20081;-72
2023/07/28 02:04:08;;;;;;;16.08;6.07;;;17.90;99.90;;;;;;4997189;28;20038;-72
2023/07/28 02:06:34;;;;;;;22.73;5.97;;;17.90;99.90;;;;;;4996323;28;20038;-71
2023/07/28 02:08:59;;;;;;;16.05;5.68;;;17.90;99.90;;;;;;4998190;28;20038;-71
2023/07/28 02:11:25;;;;;;;17.92;6.20;;;17.90;99.90;;;;;;5000481;28;20494;-71
2023/07/28 02:13:50;;;;;;;19.77;6.05;;;17.90;99.90;;;;;;4998501;28;20034;-72
2023/07/28 02:16:16;;;;;;;18.63;5.95;;;17.90;99.90;;;;;;4999116;28;20031;-71
2023/07/28 02:18:41;;;;;;;21.65;6.10;;;17.90;99.90;;;;;;5000753;28;20038;-72
2023/07/28 02:21:08;;;;;;;16.35;5.68;;;17.90;99.90;;;;;;4998643;28;20147;-71
2023/07/28 02:23:34;;;;;;;16.25;5.53;;;17.90;99.90;;;;;;4997884;28;20143;-72
2023/07/28 02:26:00;;;;;;;21.10;6.30;;;17.90;99.90;;;;;;4998855;28;20049;-70
2023/07/28 02:28:25;;;;;;;23.80;6.15;;;17.90;99.90;;;;;;4997338;28;20045;-70
2023/07/28 02:30:51;;;;;;;18.08;6.15;;;17.90;99.90;;;;;;4997920;28;20526;-72
2023/07/28 02:33:16;;;;;;;17.25;5.78;;;17.90;99.90;;;;;;5000162;28;20120;-72
2023/07/28 02:35:42;;;;;;;18.35;6.47;;;17.90;99.90;;;;;;4998471;28;20505;-72
2023/07/28 02:38:08;;;;;;;21.92;5.95;;;17.90;99.90;;;;;;5008246;28;20030;-71
2023/07/28 02:40:34;;;;;;;18.98;6.20;;;17.90;99.90;;;;;;5004287;28;20837;-70
2023/07/28 02:42:59;;;;;;;22.67;6.30;;;17.90;99.90;;;;;;4996435;28;20077;-71
2023/07/28 02:45:25;;;;;;;16.15;6.32;;;17.90;99.90;;;;;;5000578;28;20087;-71
2023/07/28 02:47:51;;;;;;;19.85;5.20;;;17.90;99.90;;;;;;4996268;28;20023;-75
2023/07/28 02:50:16;;;;;;;19.45;5.97;;;17.90;99.90;;;;;;4999230;28;20040;-71
2023/07/28 02:52:42;;;;;;;17.05;5.25;;;17.90;99.90;;;;;;4997970;28;20080;-72
2023/07/28 02:55:08;;;;;;;17.63;5.30;;;17.90;99.90;;;;;;4996127;28;20117;-72
2023/07/28 02:57:33;;;;;;;22.52;6.47;;;17.90;99.90;;;;;;5000761;28;20034;-70
2023/07/28 02:59:59;;;;;;;22.05;6.28;;;17.90;99.90;;;;;;5003056;28;20045;-70
2023/07/28 03:02:25;;;;;;;19.55;6.60;;;17.90;99.90;;;;;;5000392;28;20435;-72
2023/07/28 03:04:50;;;;;;;20.52;5.68;;;17.90;99.90;;;;;;4994566;28;20037;-73
2023/07/28 03:07:16;;;;;;;16.50;5.03;;;17.90;99.90;;;;;;4995685;28;20178;-72
2023/07/28 03:09:41;;;;;;;16.90;6.07;;;17.90;99.90;;;;;;4999567;28;20038;-71
2023/07/28 03:12:07;;;;;;;15.35;5.03;;;17.90;99.90;;;;;;4999161;28;20049;-70
2023/07/28 03:14:33;;;;;;;14.48;5.20;;;17.90;99.90;;;;;;4999519;28;20400;-71
2023/07/28 03:16:59;;;;;;;16.33;5.85;;;17.90;99.90;;;;;;4996514;28;20113;-71
2023/07/28 03:19:24;;;;;;;20.98;6.03;;;18.00;99.90;;;;;;4994767;28;20050;-70
2023/07/28 03:21:50;;;;;;;24.13;7.40;;;18.00;99.90;;;;;;4994560;28;20038;-73
2023/07/28 03:24:15;;;;;;;19.42;5.95;;;17.90;99.90;;;;;;4996570;28;20526;-70
2023/07/28 03:26:41;;;;;;;23.95;5.90;;;18.00;99.90;;;;;;4996924;28;20527;-70
2023/07/28 03:29:06;;;;;;;25.13;7.25;;;18.00;99.90;;;;;;4995222;28;20125;-71
2023/07/28 03:31:35;;;;;;;19.50;6.85;;;18.00;99.90;;;;;;4998776;28;20073;-70
2023/07/28 03:34:01;;;;;;;25.70;6.20;;;18.00;99.90;;;;;;4996066;28;20027;-70
2023/07/28 03:36:27;;;;;;;36.80;7.30;;;18.00;99.90;;;;;;4998718;28;20054;-70
2023/07/28 03:38:52;;;;;;;17.95;7.25;;;18.00;99.90;;;;;;4993175;28;20042;-70
2023/07/28 03:41:18;;;;;;;22.13;7.13;;;18.00;99.90;;;;;;4995135;28;20117;-72
2023/07/28 03:43:43;;;;;;;25.88;7.20;;;18.00;99.90;;;;;;4996458;28;20037;-70
2023/07/28 03:46:09;;;;;;;24.00;7.30;;;18.00;99.90;;;;;;4997708;28;20586;-72
2023/07/28 03:48:35;;;;;;;20.30;5.95;;;18.00;99.90;;;;;;4996200;28;20057;-71
2023/07/28 03:51:00;;;;;;;19.80;6.47;;;18.00;99.90;;;;;;4994603;28;20113;-73
2023/07/28 03:53:26;;;;;;;20.15;6.32;;;18.00;99.90;;;;;;4998488;28;20095;-72
2023/07/28 03:55:51;;;;;;;29.58;7.63;;;18.00;99.90;;;;;;4994914;28;20034;-71
2023/07/28 03:58:17;;;;;;;23.90;7.78;;;18.00;99.90;;;;;;4999394;28;20532;-70
2023/07/28 04:00:42;;;;;;;23.10;6.80;;;18.00;99.90;;;;;;4999968;28;20041;-71
2023/07/28 04:03:08;;;;;;;23.60;7.88;;;18.00;99.90;;;;;;4995528;28;20516;-70
2023/07/28 04:05:36;;;;;;;16.55;6.60;;;18.00;99.90;;;;;;4998867;28;20866;-70
2023/07/28 04:08:02;;;;;;;30.13;7.82;;;18.00;99.90;;;;;;4999683;28;20085;-70
2023/07/28 04:10:27;;;;;;;23.45;6.40;;;18.00;99.90;;;;;;5002853;28;20030;-70
2023/07/28 04:12:53;;;;;;;23.10;7.63;;;18.00;99.90;;;;;;5000563;28;20038;-70
2023/07/28 04:15:18;;;;;;;25.63;6.30;;;18.00;99.90;;;;;;4998136;28;20661;-70
2023/07/28 04:17:44;;;;;;;23.10;7.82;;;18.00;99.90;;;;;;5002346;28;20129;-72
2023/07/28 04:20:10;;;;;;;29.40;7.05;;;18.00;99.90;;;;;;4997651;28;20069;-70
2023/07/28 04:22:35;;;;;;;20.23;7.20;;;18.00;99.90;;;;;;5001150;28;20030;-70
2023/07/28 04:25:01;;;;;;;15.70;6.65;;;18.00;99.90;;;;;;5000805;28;20037;-71
2023/07/28 04:27:26;;;;;;;19.55;6.93;;;18.00;99.90;;;;;;4999094;28;20035;-71
2023/07/28 04:29:52;;;;;;;24.58;8.18;;;18.00;99.90;;;;;;5001118;28;20048;-70
2023/07/28 04:32:18;;;;;;;32.22;7.63;;;18.00;99.90;;;;;;4999232;28;20447;-70
2023/07/28 04:34:43;;;;;;;16.45;6.43;;;18.00;99.90;;;;;;5001840;28;20473;-70
2023/07/28 04:37:09;;;;;;;23.88;7.28;;;18.00;99.90;;;;;;5000348;28;20042;-70
2023/07/28 04:39:34;;;;;;;24.13;6.95;;;18.00;99.90;;;;;;5000491;28;20066;-71
2023/07/28 04:42:00;;;;;;;24.05;6.78;;;18.00;99.90;;;;;;4997901;28;20031;-71
2023/07/28 04:44:25;;;;;;;20.75;7.43;;;18.10;99.90;;;;;;5001692;28;20041;-70
2023/07/28 04:46:51;;;;;;;24.85;7.15;;;18.10;99.90;;;;;;4998269;28;20048;-73
2023/07/28 04:49:16;;;;;;;21.83;6.95;;;18.10;99.90;;;;;;4998730;28;20129;-70
2023/07/28 04:51:42;;;;;;;23.63;8.15;;;18.10;99.90;;;;;;5000335;28;20427;-72
2023/07/28 04:54:07;;;;;;;26.50;6.47;;;18.10;99.90;;;;;;4998774;28;20037;-72
2023/07/28 04:56:33;;;;;;;29.98;8.00;;;18.10;99.90;;;;;;4998619;28;20041;-72
2023/07/28 04:58:59;;;;;;;28.65;7.80;;;18.10;99.90;;;;;;5002118;28;20045;-71
2023/07/28 05:01:26;;;;;;;32.85;8.20;;;18.10;99.90;;;;;;5000768;28;20030;-70
2023/07/28 05:03:51;;;;;;;25.17;7.50;;;18.10;99.90;;;;;;4999065;28;20076;-71
2023/07/28 05:06:17;;;;;;;34.47;7.93;;;18.10;99.90;;;;;;5001991;28;20061;-70
2023/07/28 05:08:43;;;;;;;26.48;7.00;;;18.10;99.90;;;;;;5000354;28;20045;-71
2023/07/28 05:11:09;;;;;;;25.15;7.57;;;18.10;99.90;;;;;;4999686;28;20034;-71
2023/07/28 05:13:34;;;;;;;17.08;7.15;;;18.20;99.90;;;;;;4996041;28;20052;-71
2023/07/28 05:16:00;;;;;;;22.50;7.65;;;18.20;99.90;;;;;;4998660;28;20037;-70
2023/07/28 05:18:25;;;;;;;23.88;8.25;;;18.20;99.90;;;;;;4997745;28;20043;-71
2023/07/28 05:20:51;;;;;;;30.58;7.43;;;18.20;99.90;;;;;;5000736;28;20037;-71
2023/07/28 05:23:16;;;;;;;25.92;7.25;;;18.20;99.90;;;;;;5001511;28;20034;-70
2023/07/28 05:25:42;;;;;;;26.80;7.25;;;18.20;99.90;;;;;;4998615;28;20026;-71
2023/07/28 05:28:08;;;;;;;26.15;7.22;;;18.20;99.90;;;;;;4999911;28;20038;-71
2023/07/28 05:30:33;;;;;;;26.98;8.20;;;18.20;99.90;;;;;;4997945;28;20030;-71
2023/07/28 05:32:59;;;;;;;23.35;7.75;;;18.20;99.90;;;;;;4998923;28;20118;-71
2023/07/28 05:35:24;;;;;;;22.98;7.95;;;18.20;99.90;;;;;;4998864;28;20131;-71
2023/07/28 05:37:50;;;;;;;25.33;8.23;;;18.20;99.90;;;;;;4996547;28;20496;-71
2023/07/28 05:40:15;;;;;;;27.25;8.00;;;18.20;99.90;;;;;;4996847;28;20066;-71
2023/07/28 05:42:41;;;;;;;18.92;6.90;;;18.20;99.90;;;;;;4999574;28;20045;-71
2023/07/28 05:45:07;;;;;;;23.63;7.43;;;18.20;99.90;;;;;;5000953;28;20686;-72
2023/07/28 05:47:33;;;;;;;32.15;7.72;;;18.20;99.90;;;;;;4997438;28;20052;-71
2023/07/28 05:49:59;;;;;;;28.40;7.60;;;18.20;99.90;;;;;;4995480;28;20042;-72
2023/07/28 05:52:24;;;;;;;22.65;6.65;;;18.30;99.90;;;;;;4999737;28;20057;-71
2023/07/28 05:54:50;;;;;;;36.10;8.50;;;18.30;99.90;;;;;;5001331;28;20156;-71
2023/07/28 05:57:16;;;;;;;28.67;7.45;;;18.30;99.90;;;;;;4996770;28;20125;-70
2023/07/28 05:59:41;;;;;;;22.45;7.47;;;18.40;99.90;;;;;;5003928;28;20504;-72
2023/07/28 06:02:07;;;;;;;21.08;7.00;;;18.40;99.90;;;;;;4998949;28;20030;-70
2023/07/28 06:04:32;;;;;;;24.83;6.90;;;18.40;99.90;;;;;;4998005;28;20034;-70
2023/07/28 06:06:58;;;;;;;25.85;6.82;;;18.50;99.90;;;;;;4998296;28;20513;-71
2023/07/28 06:09:23;;;;;;;19.23;7.03;;;18.50;99.90;;;;;;4997590;28;20104;-72
2023/07/28 06:11:49;;;;;;;24.50;6.75;;;18.60;99.90;;;;;;4997906;28;20116;-71
2023/07/28 06:14:14;;;;;;;22.98;6.53;;;18.60;99.90;;;;;;4997402;28;20037;-71
2023/07/28 06:16:40;;;;;;;29.70;7.30;;;18.60;99.90;;;;;;4996350;28;20090;-71
2023/07/28 06:19:06;;;;;;;22.27;6.43;;;18.70;99.90;;;;;;4996895;28;20121;-71
2023/07/28 06:21:32;;;;;;;21.77;6.22;;;18.60;99.90;;;;;;4997271;28;20034;-71
2023/07/28 06:23:57;;;;;;;22.70;6.07;;;18.60;99.90;;;;;;4997332;28;20115;-71
2023/07/28 06:26:23;;;;;;;26.23;5.57;;;18.60;99.90;;;;;;4995999;28;20092;-72
2023/07/28 06:28:48;;;;;;;21.15;5.75;;;18.60;99.90;;;;;;4995504;28;20030;-71
2023/07/28 06:31:14;;;;;;;17.38;6.07;;;18.60;99.90;;;;;;4995969;28;20088;-71
2023/07/28 06:33:39;;;;;;;18.20;6.20;;;18.60;99.90;;;;;;5005188;28;20045;-71
2023/07/28 06:36:05;;;;;;;25.90;5.90;;;18.60;99.90;;;;;;5004237;28;20113;-71
2023/07/28 06:38:31;;;;;;;16.92;6.10;;;18.60;99.90;;;;;;5012026;28;20034;-71
2023/07/28 06:40:56;;;;;;;18.80;5.75;;;18.70;99.90;;;;;;5011064;28;20788;-73
2023/07/28 06:43:22;;;;;;;26.42;6.43;;;18.70;99.90;;;;;;5002823;28;20056;-71
2023/07/28 06:45:51;;;;;;;16.60;6.22;;;18.70;99.90;;;;;;5010234;28;20033;-71
2023/07/28 06:48:16;;;;;;;20.80;6.70;;;18.70;99.90;;;;;;5012503;28;20571;-71
2023/07/28 06:50:42;;;;;;;16.70;5.68;;;18.70;99.90;;;;;;4993681;28;20113;-71
2023/07/28 06:53:08;;;;;;;21.42;5.90;;;18.70;99.90;;;;;;4994324;28;20526;-72
2023/07/28 06:55:34;;;;;;;16.65;5.93;;;18.80;99.90;;;;;;4993033;28;20043;-72
2023/07/28 06:57:59;;;;;;;19.50;6.13;;;18.80;99.90;;;;;;5003642;28;20068;-72
2023/07/28 07:00:25;;;;;;;16.08;5.53;;;18.80;99.90;;;;;;4996693;28;20060;-71
2023/07/28 07:02:51;;;;;;;22.65;6.78;;;18.90;99.90;;;;;;4996445;28;20034;-70
2023/07/28 07:05:16;;;;;;;13.48;5.97;;;18.90;99.90;;;;;;4996237;28;20036;-71
2023/07/28 07:07:42;;;;;;;22.77;7.13;;;18.90;99.90;;;;;;4995577;28;20104;-71
2023/07/28 07:10:08;;;;;;;13.85;5.28;;;18.90;99.90;;;;;;5005048;28;20030;-72
2023/07/28 07:12:34;;;;;;;20.60;6.05;;;19.00;99.90;;;;;;5008499;28;20553;-70
2023/07/28 07:15:00;;;;;;;17.10;5.93;;;19.10;99.90;;;;;;5005321;28;20030;-70
2023/07/28 07:17:26;;;;;;;15.73;5.25;;;19.10;99.90;;;;;;5008630;28;20037;-70
2023/07/28 07:19:51;;;;;;;16.48;4.90;;;19.10;99.90;;;;;;5004536;28;20042;-74
2023/07/28 07:22:17;;;;;;;10.13;4.63;;;19.10;99.90;;;;;;5006524;28;20038;-71
2023/07/28 07:24:43;;;;;;;9.45;3.65;;;19.00;99.90;;;;;;5003496;28;20033;-70
2023/07/28 07:27:10;;;;;;;16.33;4.72;;;19.00;99.90;;;;;;5004319;28;20106;-71
2023/07/28 07:29:37;;;;;;;18.55;5.43;;;19.00;99.90;;;;;;5005591;28;20057;-71
2023/07/28 07:32:04;;;;;;;13.95;4.97;;;19.10;99.90;;;;;;4995959;28;20765;-72
2023/07/28 07:34:29;;;;;;;11.52;4.20;;;19.00;99.90;;;;;;4997059;28;20121;-71
2023/07/28 07:36:56;;;;;;;11.77;5.47;;;19.10;99.90;;;;;;4996247;28;20141;-70
2023/07/28 07:39:22;;;;;;;13.43;3.85;;;19.00;99.90;;;;;;4994769;28;20038;-70
2023/07/28 07:41:47;;;;;;;12.85;4.57;;;19.00;99.90;;;;;;4997413;28;20036;-70
2023/07/28 07:44:13;;;;;;;12.70;3.70;;;19.10;99.90;;;;;;5003831;28;20118;-70
2023/07/28 07:49:14;;;;;;;12.35;4.20;;;19.20;99.90;;;;;;5624535;22;20049;-70
2023/07/28 07:51:39;;;;;;;7.38;3.47;;;19.30;99.90;;;;;;5044774;28;20032;-72
2023/07/28 07:54:05;;;;;;;10.82;3.50;;;19.30;99.90;;;;;;5044778;28;20132;-71
2023/07/28 07:56:30;;;;;;;9.10;4.38;;;19.30;99.90;;;;;;5036901;28;20067;-71
2023/07/28 07:58:56;;;;;;;10.15;3.38;;;19.50;99.90;;;;;;5041470;28;20041;-71
2023/07/28 08:01:22;;;;;;;6.78;2.95;;;19.50;99.90;;;;;;5035751;28;20049;-72
2023/07/28 08:03:47;;;;;;;6.93;3.13;;;19.60;99.90;;;;;;5030547;28;20022;-72
2023/07/28 08:06:13;;;;;;;7.78;3.15;;;19.70;99.90;;;;;;5037289;28;20037;-72
2023/07/28 08:08:39;;;;;;;6.53;2.92;;;19.70;99.90;;;;;;5030165;28;20038;-72
2023/07/28 08:11:05;;;;;;;11.60;3.15;;;19.80;99.90;;;;;;5040135;28;20132;-72
2023/07/28 08:13:30;;;;;;;9.85;2.88;;;19.80;99.90;;;;;;5042979;28;20083;-72
2023/07/28 08:15:56;;;;;;;7.70;2.80;;;19.90;99.90;;;;;;5040816;28;20401;-71
2023/07/28 08:18:22;;;;;;;6.75;3.22;;;19.90;99.90;;;;;;5034729;28;20136;-71
2023/07/28 08:20:48;;;;;;;10.27;3.55;;;20.10;99.90;;;;;;5029360;28;20034;-71
2023/07/28 08:23:14;;;;;;;6.93;3.13;;;20.30;99.90;;;;;;5035022;28;20033;-72
2023/07/28 08:25:39;;;;;;;9.25;3.53;;;20.50;99.90;;;;;;5038341;28;20497;-72
2023/07/28 08:28:05;;;;;;;5.30;3.20;;;20.70;99.90;;;;;;5033986;28;20053;-71
2023/07/28 08:30:31;;;;;;;6.68;3.65;;;21.10;99.90;;;;;;5030247;28;20405;-72
2023/07/28 08:32:57;;;;;;;9.70;4.00;;;21.30;99.90;;;;;;5038459;28;20025;-72
2023/07/28 08:35:23;;;;;;;4.95;2.65;;;21.60;99.90;;;;;;5034417;28;20116;-72
2023/07/28 08:37:48;;;;;;;4.25;2.17;;;22.00;99.90;;;;;;5036971;28;20498;-72
2023/07/28 08:40:14;;;;;;;7.65;2.17;;;22.20;99.90;;;;;;5026819;28;20127;-73
2023/07/28 08:42:40;;;;;;;7.82;1.67;;;22.40;99.90;;;;;;5029263;28;20040;-73
2023/07/28 08:45:07;;;;;;;3.53;1.30;;;22.50;99.90;;;;;;5025352;28;20033;-70
2023/07/28 08:47:34;;;;;;;5.03;1.58;;;22.70;99.90;;;;;;5051216;28;20382;-72
2023/07/28 08:50:00;;;;;;;9.68;1.83;;;22.60;99.90;;;;;;5034075;28;20033;-74
2023/07/28 08:52:25;;;;;;;7.60;2.13;;;22.70;99.90;;;;;;5035992;28;20045;-72
2023/07/28 08:54:51;;;;;;;4.85;1.45;;;22.90;99.90;;;;;;5037630;28;20481;-72
2023/07/28 08:57:19;;;;;;;5.30;1.55;;;22.90;99.90;;;;;;5040745;28;20029;-72
2023/07/28 08:59:47;;;;;;;6.07;1.13;;;23.10;99.90;;;;;;5033908;28;20119;-71
2023/07/28 09:02:18;;;;;;;7.90;1.45;;;23.10;99.90;;;;;;5040623;28;20501;-73
2023/07/28 09:04:44;;;;;;;5.88;1.75;;;23.10;99.90;;;;;;5031168;28;20030;-73
2023/07/28 09:07:10;;;;;;;6.95;1.80;;;23.10;99.90;;;;;;5037788;28;20033;-72
2023/07/28 09:09:36;;;;;;;8.50;2.15;;;23.10;99.90;;;;;;5036944;28;20048;-72
2023/07/28 09:12:03;;;;;;;3.65;1.83;;;23.00;99.90;;;;;;5039673;28;20520;-75
2023/07/28 09:14:30;;;;;;;3.70;1.75;;;22.90;99.90;;;;;;5036786;28;20033;-73
2023/07/28 09:16:55;;;;;;;5.05;1.70;;;22.90;99.90;;;;;;5038878;28;20048;-72
2023/07/28 09:19:21;;;;;;;9.35;1.63;;;22.70;99.90;;;;;;5038242;28;20638;-73
2023/07/28 09:21:58;;;;;;;3.17;1.50;;;22.70;99.90;;;;;;5038164;28;20049;-73
2023/07/28 09:24:33;;;;;;;10.32;2.30;;;22.60;99.90;;;;;;5034735;28;20044;-72
2023/07/28 09:26:59;;;;;;;3.10;1.75;;;22.60;99.90;;;;;;5041569;28;20029;-73
2023/07/28 09:29:27;;;;;;;5.95;1.40;;;22.60;99.90;;;;;;5045597;28;20456;-72
2023/07/28 09:32:02;;;;;;;3.70;1.23;;;22.60;99.90;;;;;;5042071;28;20025;-72
2023/07/28 09:34:28;;;;;;;5.57;1.90;;;22.80;99.90;;;;;;5040094;28;20037;-72
2023/07/28 09:36:55;;;;;;;6.13;1.60;;;23.10;99.90;;;;;;5044129;28;20080;-72
2023/07/28 09:39:21;;;;;;;8.05;2.25;;;23.30;99.90;;;;;;5036918;28;20059;-72
2023/07/28 09:41:47;;;;;;;4.78;1.92;;;23.50;99.90;;;;;;5036517;28;20037;-72
2023/07/28 09:44:13;;;;;;;7.38;1.95;;;23.50;99.90;;;;;;5034975;28;20137;-72
2023/07/28 09:46:50;;;;;;;9.00;2.15;;;23.60;99.90;;;;;;5037554;28;20379;-72
2023/07/28 09:49:20;;;;;;;7.18;2.10;;;23.70;99.90;;;;;;5036834;28;20126;-71
2023/07/28 09:51:49;;;;;;;5.93;2.50;;;23.70;99.90;;;;;;5037407;28;20059;-71
2023/07/28 09:54:29;;;;;;;5.25;1.90;;;23.70;99.90;;;;;;5038765;28;20673;-71
2023/07/28 09:56:59;;;;;;;6.28;1.85;;;23.70;99.90;;;;;;5037663;28;20659;-70
2023/07/28 09:59:41;;;;;;;4.75;1.80;;;23.80;99.90;;;;;;5039389;28;20033;-71
2023/07/28 10:02:08;;;;;;;3.45;1.73;;;24.00;99.90;;;;;;5036816;28;20047;-72
2023/07/28 10:04:34;;;;;;;8.20;2.53;;;24.20;99.90;;;;;;5040033;28;20117;-72
2023/07/28 10:07:01;;;;;;;2.95;1.73;;;24.30;99.90;;;;;;5040712;28;20053;-72
2023/07/28 10:09:37;;;;;;;5.30;1.88;;;24.40;99.90;;;;;;5036773;28;20036;-72
2023/07/28 10:12:03;;;;;;;4.85;2.17;;;24.60;99.90;;;;;;5033570;28;20108;-72
2023/07/28 10:14:31;;;;;;;5.30;2.20;;;24.80;99.90;;;;;;5042670;28;20087;-72
2023/07/28 10:17:04;;;;;;;3.03;1.58;;;24.90;99.90;;;;;;5035318;28;20556;-73
2023/07/28 10:19:34;;;;;;;2.60;1.30;;;25.10;99.90;;;;;;5033094;28;20049;-71
2023/07/28 10:22:08;;;;;;;;;;;25.40;99.90;;;;;;5031635;28;20025;-72
2023/07/28 10:25:00;;;;;;;2.90;1.50;;;25.50;99.90;;;;;;5040328;28;19912;-74
2023/07/28 10:27:36;;;;;;;3.55;1.88;;;25.60;99.90;;;;;;5039156;28;20037;-72
2023/07/28 10:30:07;;;;;;;6.07;1.73;;;25.70;99.90;;;;;;5032474;28;20526;-71
2023/07/28 10:32:43;;;;;;;3.78;2.38;;;25.60;99.90;;;;;;5041300;28;20045;-74
2023/07/28 10:35:17;;;;;;;4.10;1.80;;;25.50;99.90;;;;;;5041711;28;20482;-75
2023/07/28 10:37:46;;;;;;;6.43;1.80;;;25.30;99.90;;;;;;5041213;28;20129;-72
2023/07/28 10:40:29;;;;;;;3.55;1.90;;;25.00;99.90;;;;;;5036966;28;20048;-72
2023/07/28 10:42:56;;;;;;;4.40;1.60;;;24.80;99.90;;;;;;5037975;28;20045;-75
2023/07/28 10:45:29;;;;;;;3.53;1.95;;;24.70;99.90;;;;;;5041239;28;20120;-75
2023/07/28 10:47:56;;;;;;;12.60;2.10;;;24.70;99.90;;;;;;5034402;28;20037;-72
2023/07/28 10:50:23;;;;;;;4.45;1.60;;;24.70;99.90;;;;;;5039796;28;20147;-73
2023/07/28 10:52:48;;;;;;;8.38;1.88;;;24.90;99.90;;;;;;5037846;28;20057;-73
2023/07/28 10:55:16;;;;;;;4.88;2.05;;;25.10;99.90;;;;;;5036772;28;20068;-73
2023/07/28 10:57:43;;;;;;;5.50;1.80;;;25.30;99.90;;;;;;5040411;28;20037;-72
2023/07/28 11:00:11;;;;;;;4.30;1.98;;;25.40;99.90;;;;;;5037348;28;20053;-73
2023/07/28 11:02:38;;;;;;;3.20;1.55;;;25.40;99.90;;;;;;5038752;28;20147;-72
2023/07/28 11:05:12;;;;;;;7.57;2.00;;;25.20;99.90;;;;;;5041980;28;20090;-74
2023/07/28 11:07:42;;;;;;;3.80;1.33;;;25.10;99.90;;;;;;5046257;28;20495;-73
2023/07/28 11:10:08;;;;;;;3.13;1.75;;;25.10;99.90;;;;;;5037835;28;20098;-72
2023/07/28 11:12:34;;;;;;;3.63;1.70;;;25.30;99.90;;;;;;5045479;28;20573;-74
2023/07/28 11:15:00;;;;;;;4.03;1.98;;;25.60;99.90;;;;;;5054274;28;20033;-72
2023/07/28 11:17:27;;;;;;;2.80;1.52;;;25.60;99.90;;;;;;5040359;28;20036;-72
2023/07/28 11:19:53;;;;;;;3.10;1.70;;;25.50;99.90;;;;;;5037086;28;20033;-72
2023/07/28 11:22:19;;;;;;;6.40;1.92;;;25.30;99.90;;;;;;5040582;28;20106;-74
2023/07/28 11:24:45;;;;;;;4.63;1.50;;;25.20;99.90;;;;;;5040166;28;20123;-73
2023/07/28 11:27:10;;;;;;;3.78;1.50;;;25.10;99.90;;;;;;5036202;28;20029;-74
2023/07/28 11:29:36;;;;;;;4.13;1.90;;;25.00;99.90;;;;;;5038122;28;20057;-74
2023/07/28 11:32:03;;;;;;;9.05;1.63;;;25.10;99.90;;;;;;5038289;28;20407;-74
2023/07/28 11:34:35;;;;;;;3.30;1.60;;;25.10;99.90;;;;;;5038924;28;20065;-74
2023/07/28 11:37:02;;;;;;;5.43;1.70;;;25.00;99.90;;;;;;5036437;28;20029;-73
2023/07/28 11:39:28;;;;;;;5.50;1.73;;;24.90;99.90;;;;;;5040390;28;20136;-73
2023/07/28 11:41:54;;;;;;;4.10;1.77;;;24.70;99.90;;;;;;5031437;28;20067;-75
2023/07/28 11:44:20;;;;;;;9.90;2.30;;;24.50;99.90;;;;;;5034629;28;20108;-73
2023/07/28 11:46:46;;;;;;;6.90;2.35;;;24.50;99.90;;;;;;5037875;28;20040;-73
2023/07/28 11:49:13;;;;;;;4.47;2.20;;;24.50;99.90;;;;;;5036433;28;20041;-73
2023/07/28 11:51:44;;;;;;;3.72;1.73;;;24.50;99.90;;;;;;5037636;28;20233;-73
2023/07/28 11:54:14;;;;;;;6.82;1.73;;;24.50;99.90;;;;;;5037502;28;20032;-74
2023/07/28 11:56:42;;;;;;;6.03;1.88;;;24.40;99.90;;;;;;5035978;28;20038;-74
2023/07/28 11:59:08;;;;;;;4.82;1.67;;;24.40;99.90;;;;;;5038892;28;20423;-73
2023/07/28 12:01:34;;;;;;;5.55;2.20;;;24.30;99.90;;;;;;5037150;28;20033;-73
2023/07/28 12:04:18;;;;;;;3.97;1.67;;;24.30;99.90;;;;;;5038786;28;20036;-76
2023/07/28 12:07:19;;;;;;;3.95;1.70;;;24.30;99.90;;;;;;5037872;28;20057;-75
2023/07/28 12:09:54;;;;;;;4.05;1.63;;;24.30;99.90;;;;;;5030762;28;20037;-70
2023/07/28 12:12:21;;;;;;;7.85;2.20;;;24.20;99.90;;;;;;5032937;28;20107;-75
2023/07/28 12:14:48;;;;;;;2.70;1.35;;;24.20;99.90;;;;;;5042367;28;20813;-74
2023/07/28 12:17:15;;;;;;;5.28;1.30;;;24.20;99.90;;;;;;5040331;28;20037;-72
2023/07/28 12:20:00;;;;;;;4.55;1.40;;;24.30;99.90;;;;;;5033972;28;20130;-72
2023/07/28 12:22:27;;;;;;;3.55;1.75;;;24.50;99.90;;;;;;5032396;28;20037;-73
2023/07/28 12:24:53;;;;;;;4.35;1.00;;;24.50;99.90;;;;;;5041454;28;20029;-74
2023/07/28 12:27:20;;;;;;;5.80;1.23;;;24.50;99.90;;;;;;5039216;28;20051;-74
2023/07/28 12:29:46;;;;;;;2.85;1.45;;;24.50;99.90;;;;;;5039482;28;20033;-72
2023/07/28 12:32:12;;;;;;;3.95;1.27;;;24.40;99.90;;;;;;5040829;28;20041;-71
2023/07/28 12:34:37;;;;;;;2.28;1.30;;;24.30;99.90;;;;;;5042505;28;20080;-73
2023/07/28 12:37:03;;;;;;;2.60;1.17;;;24.30;99.90;;;;;;5036812;28;20032;-72
2023/07/28 12:39:29;;;;;;;4.00;1.85;;;24.30;99.90;;;;;;5042374;28;20071;-72
2023/07/28 12:41:54;;;;;;;2.47;1.23;;;24.20;99.90;;;;;;5043110;28;20041;-74